Time;durP1;ratioP1;P1;durP2;ratioP2;P2;SDS_P1;SDS_P2;PMS_P1;PMS_P2;Temp;Humidity;BMP_temperature;BMP_pressure;BME280_temperature;BME280_humidity;BME280_pressure;Samples;Min_cycle;Max_cycle;Signal;HPM_P1;HPM_P2
2022/03/05 00:00:54;;;;;;;24.20;15.63;;;-1.00;99.90;;;;;;5086387;28;20545;-76
2022/03/05 00:03:20;;;;;;;23.37;16.40;;;-1.10;99.90;;;;;;5087944;28;20214;-76
2022/03/05 00:05:46;;;;;;;23.17;16.10;;;-1.10;99.90;;;;;;5088491;28;20182;-76
2022/03/05 00:08:12;;;;;;;22.80;15.80;;;-1.20;99.90;;;;;;5087677;28;20207;-75
2022/03/05 00:10:38;;;;;;;20.90;16.07;;;-1.20;99.90;;;;;;5082336;28;20182;-76
2022/03/05 00:13:04;;;;;;;24.20;17.00;;;-1.20;99.90;;;;;;5092596;28;20576;-75
2022/03/05 00:15:30;;;;;;;21.37;15.70;;;-1.20;99.90;;;;;;5086816;28;20667;-75
2022/03/05 00:17:56;;;;;;;24.63;16.67;;;-1.30;99.90;;;;;;5087672;28;20253;-76
2022/03/05 00:20:23;;;;;;;23.13;16.30;;;-1.40;99.90;;;;;;5087804;28;20170;-76
2022/03/05 00:22:52;;;;;;;23.67;15.13;;;-1.40;99.90;;;;;;5089883;28;20616;-75
2022/03/05 00:25:18;;;;;;;24.80;16.77;;;-1.40;99.90;;;;;;5087209;28;20190;-75
2022/03/05 00:27:44;;;;;;;25.47;17.03;;;-1.50;99.90;;;;;;5088307;28;20590;-76
2022/03/05 00:30:11;;;;;;;23.83;16.93;;;-1.50;99.90;;;;;;5089820;28;20221;-75
2022/03/05 00:32:37;;;;;;;24.50;15.70;;;-1.60;99.90;;;;;;5080744;28;20207;-76
2022/03/05 00:35:03;;;;;;;26.80;16.83;;;-1.60;99.90;;;;;;5092804;28;20173;-75
2022/03/05 00:37:29;;;;;;;23.27;15.83;;;-1.60;99.90;;;;;;5088721;28;20183;-76
2022/03/05 00:39:55;;;;;;;23.30;16.10;;;-1.70;99.90;;;;;;5085989;28;20179;-76
2022/03/05 00:42:21;;;;;;;22.67;15.67;;;-1.70;99.90;;;;;;5083793;28;20199;-75
2022/03/05 00:44:46;;;;;;;25.63;16.30;;;-1.80;99.90;;;;;;5087488;28;20178;-75
2022/03/05 00:47:12;;;;;;;24.30;16.60;;;-1.80;99.90;;;;;;5087549;28;20174;-75
2022/03/05 00:49:38;;;;;;;21.20;14.53;;;-1.80;99.90;;;;;;5083245;28;20179;-74
2022/03/05 00:52:04;;;;;;;22.20;15.43;;;-1.80;99.90;;;;;;5084755;28;20206;-75
2022/03/05 00:54:29;;;;;;;25.10;16.77;;;-1.80;99.90;;;;;;5087685;28;20254;-75
2022/03/05 00:56:55;;;;;;;23.80;15.63;;;-1.80;99.90;;;;;;5086599;28;20263;-75
2022/03/05 00:59:20;;;;;;;22.77;16.23;;;-1.80;99.90;;;;;;5085578;28;20182;-75
2022/03/05 01:01:46;;;;;;;23.83;15.63;;;-1.90;99.90;;;;;;5087385;28;20209;-74
2022/03/05 01:04:12;;;;;;;23.10;15.97;;;-2.00;99.90;;;;;;5086402;28;20190;-74
2022/03/05 01:06:38;;;;;;;23.83;15.83;;;-1.90;99.90;;;;;;5084736;28;20207;-74
2022/03/05 01:09:04;;;;;;;23.77;16.83;;;-1.90;99.90;;;;;;5084242;28;20239;-74
2022/03/05 01:11:30;;;;;;;25.50;16.77;;;-1.90;99.90;;;;;;5082913;28;20683;-74
2022/03/05 01:13:55;;;;;;;24.97;17.30;;;-1.90;99.90;;;;;;5079085;28;20199;-74
2022/03/05 01:16:21;;;;;;;25.83;15.93;;;-1.90;99.90;;;;;;5078621;28;20526;-74
2022/03/05 01:18:47;;;;;;;22.90;15.70;;;-2.00;99.90;;;;;;5090544;28;20594;-76
2022/03/05 01:21:13;;;;;;;22.67;15.70;;;-1.90;99.90;;;;;;5086470;28;20171;-75
2022/03/05 01:23:39;;;;;;;22.90;15.83;;;-1.90;99.90;;;;;;5085548;28;20231;-75
2022/03/05 01:26:04;;;;;;;22.23;15.87;;;-1.90;99.90;;;;;;5086439;28;20187;-75
2022/03/05 01:28:30;;;;;;;23.33;15.30;;;-1.90;99.90;;;;;;5084765;28;20182;-75
2022/03/05 01:30:56;;;;;;;24.57;15.70;;;-1.90;99.90;;;;;;5081315;28;20590;-75
2022/03/05 01:33:22;;;;;;;22.87;15.17;;;-2.00;99.90;;;;;;5081944;28;20195;-75
2022/03/05 01:35:48;;;;;;;19.77;14.67;;;-2.00;99.90;;;;;;5089583;28;20170;-74
2022/03/05 01:38:16;;;;;;;24.60;16.77;;;-2.10;99.90;;;;;;5085226;28;20614;-75
2022/03/05 01:40:42;;;;;;;22.73;15.07;;;-2.10;99.90;;;;;;5085683;28;20542;-75
2022/03/05 01:43:08;;;;;;;23.73;15.63;;;-2.10;99.90;;;;;;5085304;28;20332;-75
2022/03/05 01:45:34;;;;;;;21.60;14.37;;;-2.10;99.90;;;;;;5084133;28;20171;-74
2022/03/05 01:48:00;;;;;;;21.07;14.90;;;-2.10;99.90;;;;;;5089940;28;20186;-75
2022/03/05 01:50:26;;;;;;;23.10;15.07;;;-2.20;99.90;;;;;;5085450;28;20182;-76
2022/03/05 01:52:53;;;;;;;23.53;16.27;;;-2.20;99.90;;;;;;5082043;28;20304;-75
2022/03/05 01:55:18;;;;;;;23.17;14.93;;;-2.20;99.90;;;;;;5087584;28;20179;-76
2022/03/05 01:57:44;;;;;;;18.90;14.57;;;-2.20;99.90;;;;;;5082726;28;20232;-76
2022/03/05 02:00:12;;;;;;;23.57;15.77;;;-2.10;99.90;;;;;;5087108;28;20178;-76
2022/03/05 02:02:38;;;;;;;27.43;16.97;;;-2.20;99.90;;;;;;5080266;28;20211;-75
2022/03/05 02:05:05;;;;;;;24.93;16.27;;;-2.20;99.90;;;;;;5090253;28;20171;-76
2022/03/05 02:07:31;;;;;;;21.40;15.63;;;-2.30;99.90;;;;;;5085463;28;20183;-76
2022/03/05 02:09:57;;;;;;;24.63;16.10;;;-2.30;99.90;;;;;;5083514;28;20182;-76
2022/03/05 02:12:33;;;;;;;23.47;15.60;;;-2.30;99.90;;;;;;5079722;28;20697;-75
2022/03/05 02:14:59;;;;;;;27.80;15.67;;;-2.30;99.90;;;;;;5079225;28;20219;-76
2022/03/05 02:17:27;;;;;;;22.60;15.77;;;-2.30;99.90;;;;;;5074573;28;20204;-75
2022/03/05 02:19:56;;;;;;;22.63;15.17;;;-2.30;99.90;;;;;;5087031;28;20653;-75
2022/03/05 02:22:22;;;;;;;24.33;15.00;;;-2.30;99.90;;;;;;5085046;28;20206;-75
2022/03/05 02:24:50;;;;;;;21.47;15.40;;;-2.30;99.90;;;;;;5079973;28;20175;-75
2022/03/05 02:27:16;;;;;;;23.67;15.50;;;-2.30;99.90;;;;;;5076166;28;20186;-75
2022/03/05 02:29:42;;;;;;;23.50;16.13;;;-2.30;99.90;;;;;;5080837;28;20182;-75
2022/03/05 02:32:08;;;;;;;23.40;15.13;;;-2.40;99.90;;;;;;5075934;28;20198;-75
2022/03/05 02:34:34;;;;;;;22.30;16.20;;;-2.40;99.90;;;;;;5078590;28;20198;-75
2022/03/05 02:37:00;;;;;;;23.23;15.10;;;-2.30;99.90;;;;;;5083837;28;20179;-75
2022/03/05 02:39:25;;;;;;;24.00;16.37;;;-2.30;99.90;;;;;;5078121;28;20183;-74
2022/03/05 02:41:53;;;;;;;23.63;15.57;;;-2.40;99.90;;;;;;5081693;28;20239;-74
2022/03/05 02:44:18;;;;;;;25.30;16.13;;;-2.50;99.90;;;;;;5074676;28;20642;-75
2022/03/05 02:46:44;;;;;;;22.40;14.93;;;-2.50;99.90;;;;;;5076721;28;20240;-74
2022/03/05 02:49:10;;;;;;;22.57;16.03;;;-2.50;99.90;;;;;;5081604;28;20234;-76
2022/03/05 02:51:35;;;;;;;20.43;14.27;;;-2.50;99.90;;;;;;5084481;28;20244;-74
2022/03/05 02:54:01;;;;;;;24.47;15.60;;;-2.60;99.90;;;;;;5078065;28;20298;-75
2022/03/05 02:56:27;;;;;;;23.53;14.67;;;-2.60;99.90;;;;;;5080528;28;20248;-75
2022/03/05 02:58:52;;;;;;;26.17;15.53;;;-2.60;99.90;;;;;;5090308;28;20582;-75
2022/03/05 03:01:18;;;;;;;21.60;15.73;;;-2.60;99.90;;;;;;5082136;28;20784;-75
2022/03/05 03:03:44;;;;;;;22.27;14.13;;;-2.60;99.90;;;;;;5083007;28;20203;-75
2022/03/05 03:06:10;;;;;;;20.60;14.53;;;-2.60;99.90;;;;;;5079641;28;20258;-75
2022/03/05 03:08:35;;;;;;;20.40;14.13;;;-2.60;99.90;;;;;;5075478;28;20662;-75
2022/03/05 03:11:01;;;;;;;20.33;14.30;;;-2.60;99.90;;;;;;5077554;28;20187;-76
2022/03/05 03:13:27;;;;;;;23.07;15.83;;;-2.60;99.90;;;;;;5085597;28;20206;-75
2022/03/05 03:15:52;;;;;;;22.27;16.17;;;-2.70;99.90;;;;;;5078960;28;20179;-75
2022/03/05 03:18:18;;;;;;;21.57;16.07;;;-2.80;99.90;;;;;;5078276;28;20201;-75
2022/03/05 03:20:44;;;;;;;24.93;16.03;;;-2.80;99.90;;;;;;5083272;28;20521;-75
2022/03/05 03:23:10;;;;;;;22.07;15.70;;;-2.90;99.90;;;;;;5081294;28;20210;-75
2022/03/05 03:25:39;;;;;;;24.20;15.03;;;-2.90;99.90;;;;;;5085141;28;20186;-74
2022/03/05 03:28:05;;;;;;;21.63;14.50;;;-3.00;99.90;;;;;;5082617;28;20227;-73
2022/03/05 03:30:31;;;;;;;23.20;14.77;;;-2.90;99.90;;;;;;5082705;28;20654;-74
2022/03/05 03:32:57;;;;;;;24.50;15.40;;;-2.90;99.90;;;;;;5081287;28;20206;-74
2022/03/05 03:35:23;;;;;;;22.20;14.40;;;-2.80;99.90;;;;;;5084069;28;20183;-75
2022/03/05 03:37:49;;;;;;;19.40;13.67;;;-2.80;99.90;;;;;;5081609;28;20179;-75
2022/03/05 03:40:16;;;;;;;23.67;14.97;;;-2.70;99.90;;;;;;5082368;28;20458;-75
2022/03/05 03:42:45;;;;;;;22.67;16.13;;;-2.70;99.90;;;;;;5084785;28;20202;-75
2022/03/05 03:45:11;;;;;;;22.90;14.53;;;-2.90;99.90;;;;;;5080700;28;20238;-75
2022/03/05 03:47:38;;;;;;;21.73;14.83;;;-3.00;99.90;;;;;;5085238;28;20178;-75
2022/03/05 03:50:05;;;;;;;21.93;14.90;;;-3.00;99.90;;;;;;5082097;28;20183;-75
2022/03/05 03:52:31;;;;;;;20.47;14.17;;;-3.00;99.90;;;;;;5087446;28;20252;-75
2022/03/05 03:54:57;;;;;;;21.70;14.53;;;-3.00;99.90;;;;;;5081036;28;20575;-75
2022/03/05 03:57:22;;;;;;;20.33;13.50;;;-3.00;99.90;;;;;;5082715;28;20179;-75
2022/03/05 03:59:51;;;;;;;22.60;14.97;;;-3.00;99.90;;;;;;5081685;28;20175;-75
2022/03/05 04:02:20;;;;;;;20.63;14.73;;;-3.00;99.90;;;;;;5075603;28;20187;-76
2022/03/05 04:04:46;;;;;;;24.30;14.70;;;-3.10;99.90;;;;;;5076936;28;20604;-76
2022/03/05 04:09:57;;;;;;;19.57;13.90;;;-3.20;99.90;;;;;;5076455;28;20228;-75
2022/03/05 04:12:23;;;;;;;22.37;13.90;;;-3.30;99.90;;;;;;5074893;28;20595;-76
2022/03/05 04:14:50;;;;;;;20.97;14.73;;;-3.30;99.90;;;;;;5075452;28;20179;-76
2022/03/05 04:17:15;;;;;;;23.43;14.73;;;-3.40;99.90;;;;;;5074710;28;20222;-76
2022/03/05 04:19:42;;;;;;;18.73;13.70;;;-3.40;99.90;;;;;;5075097;28;20217;-76
2022/03/05 04:22:08;;;;;;;24.00;15.43;;;-3.40;99.90;;;;;;5074816;28;20817;-75
2022/03/05 04:24:34;;;;;;;20.70;13.40;;;-3.40;99.90;;;;;;5074111;28;20214;-75
2022/03/05 04:27:00;;;;;;;22.77;14.67;;;-3.30;99.90;;;;;;5076423;28;20263;-75
2022/03/05 04:29:25;;;;;;;23.30;15.73;;;-3.40;99.90;;;;;;5087678;28;20212;-75
2022/03/05 04:31:51;;;;;;;24.10;15.30;;;-3.40;99.90;;;;;;5088807;28;20209;-75
2022/03/05 04:34:17;;;;;;;19.63;14.30;;;-3.40;99.90;;;;;;5089904;28;20669;-75
2022/03/05 04:36:43;;;;;;;24.63;15.77;;;-3.40;99.90;;;;;;5088204;28;20194;-75
2022/03/05 04:39:09;;;;;;;22.67;14.17;;;-3.40;99.90;;;;;;5090159;28;20545;-75
2022/03/05 04:41:34;;;;;;;23.13;15.13;;;-3.40;99.90;;;;;;5087769;28;20186;-75
2022/03/05 04:44:00;;;;;;;22.57;15.33;;;-3.40;99.90;;;;;;5083633;28;20511;-75
2022/03/05 04:46:26;;;;;;;26.73;15.67;;;-3.40;99.90;;;;;;5087692;28;20183;-75
2022/03/05 04:48:52;;;;;;;21.67;14.13;;;-3.40;99.90;;;;;;5090820;28;20174;-75
2022/03/05 04:51:18;;;;;;;25.53;15.67;;;-3.40;99.90;;;;;;5082209;28;20236;-74
2022/03/05 04:53:43;;;;;;;19.47;14.13;;;-3.40;99.90;;;;;;5084327;28;20210;-75
2022/03/05 04:56:09;;;;;;;22.50;15.27;;;-3.40;99.90;;;;;;5082922;28;20620;-74
2022/03/05 04:58:35;;;;;;;20.73;14.40;;;-3.40;99.90;;;;;;5081682;28;20201;-75
2022/03/05 05:01:01;;;;;;;23.40;16.07;;;-3.30;99.90;;;;;;5082596;28;20209;-75
2022/03/05 05:03:27;;;;;;;21.93;14.23;;;-3.20;99.90;;;;;;5039089;28;1117764;-74
2022/03/05 05:05:53;;;;;;;22.17;15.23;;;-3.20;99.90;;;;;;5079075;28;20193;-75
2022/03/05 05:08:18;;;;;;;22.43;14.10;;;-3.40;99.90;;;;;;5080677;28;20183;-75
2022/03/05 05:10:44;;;;;;;22.57;15.07;;;-3.40;99.90;;;;;;5077742;28;20305;-75
2022/03/05 05:13:09;;;;;;;21.87;15.30;;;-3.50;99.90;;;;;;5088626;28;20206;-74
2022/03/05 05:15:35;;;;;;;24.80;15.30;;;-3.50;99.90;;;;;;5081918;28;20239;-75
2022/03/05 05:18:01;;;;;;;23.60;16.17;;;-3.40;99.90;;;;;;5080607;28;20179;-75
2022/03/05 05:20:26;;;;;;;20.57;14.67;;;-3.30;99.90;;;;;;5084307;28;20596;-75
2022/03/05 05:22:52;;;;;;;22.53;15.93;;;-3.30;99.90;;;;;;5081660;28;20708;-75
2022/03/05 05:25:18;;;;;;;26.30;15.73;;;-3.30;99.90;;;;;;5091156;28;20194;-75
2022/03/05 05:27:45;;;;;;;25.90;16.20;;;-3.40;99.90;;;;;;5081142;28;20198;-75
2022/03/05 05:30:10;;;;;;;22.90;15.23;;;-3.50;99.90;;;;;;5080678;28;20266;-74
2022/03/05 05:32:36;;;;;;;22.67;16.00;;;-3.50;99.90;;;;;;5078756;28;20222;-75
2022/03/05 05:35:03;;;;;;;27.67;17.17;;;-3.60;99.90;;;;;;5085849;28;20178;-74
2022/03/05 05:37:29;;;;;;;27.20;17.07;;;-3.60;99.90;;;;;;5088903;28;20189;-75
2022/03/05 05:39:54;;;;;;;27.13;16.23;;;-3.60;99.90;;;;;;5078848;28;20183;-76
2022/03/05 05:42:20;;;;;;;29.00;17.90;;;-3.70;99.90;;;;;;5087109;28;20198;-75
2022/03/05 05:44:45;;;;;;;28.97;18.37;;;-3.60;99.90;;;;;;5084386;28;20196;-76
2022/03/05 05:47:11;;;;;;;25.10;17.20;;;-3.60;99.90;;;;;;5085573;28;20189;-76
2022/03/05 05:49:37;;;;;;;29.00;18.53;;;-3.50;99.90;;;;;;5076594;28;20229;-75
2022/03/05 05:52:04;;;;;;;28.90;18.60;;;-3.50;99.90;;;;;;5078596;28;20202;-76
2022/03/05 05:54:30;;;;;;;28.30;17.13;;;-3.50;99.90;;;;;;5075430;28;20207;-76
2022/03/05 05:56:56;;;;;;;26.63;16.67;;;-3.40;99.90;;;;;;5076414;28;20198;-76
2022/03/05 05:59:22;;;;;;;25.93;17.00;;;-3.40;99.90;;;;;;5076254;28;20199;-75
2022/03/05 06:01:47;;;;;;;28.13;17.03;;;-3.30;99.90;;;;;;5075407;28;20229;-76
2022/03/05 06:04:13;;;;;;;27.67;17.83;;;-3.30;99.90;;;;;;5079787;28;20195;-77
2022/03/05 06:06:39;;;;;;;26.67;17.07;;;-3.20;99.90;;;;;;5082439;28;20187;-75
2022/03/05 06:09:04;;;;;;;27.63;17.63;;;-3.10;99.90;;;;;;5075556;28;20183;-75
2022/03/05 06:11:30;;;;;;;28.57;16.83;;;-3.10;99.90;;;;;;5088061;28;20696;-75
2022/03/05 06:13:56;;;;;;;26.00;17.20;;;-3.10;99.90;;;;;;5081394;28;20653;-75
2022/03/05 06:16:22;;;;;;;23.03;16.47;;;-3.10;99.90;;;;;;5088661;28;20182;-75
2022/03/05 06:18:48;;;;;;;26.97;16.97;;;-3.00;99.90;;;;;;5083604;28;20546;-76
2022/03/05 06:21:14;;;;;;;24.97;16.37;;;-3.00;99.90;;;;;;5084904;28;20180;-77
2022/03/05 06:23:39;;;;;;;25.33;16.43;;;-3.00;99.90;;;;;;5084265;28;20250;-75
2022/03/05 06:26:05;;;;;;;28.77;17.70;;;-3.00;99.90;;;;;;5080674;28;20212;-75
2022/03/05 06:28:31;;;;;;;27.97;17.47;;;-3.00;99.90;;;;;;5086493;28;20664;-75
2022/03/05 06:30:57;;;;;;;30.57;18.53;;;-3.00;99.90;;;;;;5074346;28;20211;-76
2022/03/05 06:33:23;;;;;;;28.07;15.43;;;-3.00;99.90;;;;;;5076988;28;20225;-75
2022/03/05 06:35:49;;;;;;;24.57;16.30;;;-2.90;99.90;;;;;;5078431;28;20541;-75
2022/03/05 06:38:14;;;;;;;26.77;17.73;;;-2.80;99.90;;;;;;5080365;28;20178;-75
2022/03/05 06:40:40;;;;;;;27.77;17.30;;;-2.70;99.90;;;;;;5078855;28;20330;-75
2022/03/05 06:43:06;;;;;;;26.23;17.13;;;-2.60;99.90;;;;;;5075535;28;20211;-75
2022/03/05 06:45:32;;;;;;;23.57;16.87;;;-2.50;99.90;;;;;;5076525;28;20226;-74
2022/03/05 06:47:57;;;;;;;29.23;17.80;;;-2.30;99.90;;;;;;5079533;28;20270;-76
2022/03/05 06:50:23;;;;;;;25.33;15.63;;;-2.30;99.90;;;;;;5082579;28;20606;-76
2022/03/05 06:52:49;;;;;;;23.67;14.50;;;-2.10;99.90;;;;;;5083337;28;20715;-74
2022/03/05 06:55:16;;;;;;;26.90;16.33;;;-1.90;99.90;;;;;;5079233;28;20179;-74
2022/03/05 06:57:43;;;;;;;25.93;17.10;;;-1.80;99.90;;;;;;5078651;28;20610;-75
2022/03/05 07:00:12;;;;;;;24.90;15.63;;;-1.70;99.90;;;;;;5087968;28;20546;-77
2022/03/05 07:02:38;;;;;;;24.60;16.10;;;-1.50;99.90;;;;;;5082240;28;20587;-74
2022/03/05 07:05:04;;;;;;;24.53;17.33;;;-1.20;99.90;;;;;;5094978;28;20181;-76
2022/03/05 07:07:30;;;;;;;24.87;15.43;;;-1.00;99.90;;;;;;5083645;28;20179;-75
2022/03/05 07:09:56;;;;;;;27.50;17.97;;;-0.70;99.90;;;;;;5084154;28;20660;-74
2022/03/05 07:12:22;;;;;;;30.57;16.27;;;-0.60;99.90;;;;;;5089705;28;20207;-75
2022/03/05 07:14:49;;;;;;;25.20;17.33;;;-0.50;99.90;;;;;;5090297;28;20178;-75
2022/03/05 07:17:18;;;;;;;22.27;15.73;;;-0.50;99.90;;;;;;5090973;28;20167;-75
2022/03/05 07:19:44;;;;;;;23.97;15.50;;;-0.50;99.90;;;;;;5086038;28;20552;-76
2022/03/05 07:22:10;;;;;;;25.43;16.13;;;-0.50;99.90;;;;;;5085109;28;20194;-76
2022/03/05 07:24:35;;;;;;;28.67;17.77;;;-0.50;99.90;;;;;;5091418;28;20546;-77
2022/03/05 07:27:02;;;;;;;24.27;16.87;;;-0.50;99.90;;;;;;5084546;28;20590;-77
2022/03/05 07:29:27;;;;;;;25.30;17.03;;;-0.60;99.90;;;;;;5075212;28;20268;-76
2022/03/05 07:31:53;;;;;;;27.50;17.50;;;-0.60;99.90;;;;;;5078219;28;20241;-75
2022/03/05 07:34:19;;;;;;;25.40;16.77;;;-0.50;99.90;;;;;;5079677;28;20276;-76
2022/03/05 07:36:44;;;;;;;27.13;18.43;;;-0.50;99.90;;;;;;5086280;28;20643;-76
2022/03/05 07:39:10;;;;;;;23.47;16.50;;;-0.50;99.90;;;;;;5078836;28;20183;-77
2022/03/05 07:41:37;;;;;;;26.80;16.37;;;-0.50;99.90;;;;;;5079718;28;20194;-77
2022/03/05 07:44:04;;;;;;;25.60;16.97;;;-0.50;99.90;;;;;;5082386;28;20254;-76
2022/03/05 07:46:30;;;;;;;29.23;17.63;;;-0.30;99.90;;;;;;5079884;28;20199;-76
2022/03/05 07:48:56;;;;;;;26.47;17.20;;;-0.30;99.90;;;;;;5081107;28;20181;-77
2022/03/05 07:51:21;;;;;;;25.60;17.93;;;-0.20;99.90;;;;;;5075137;28;20190;-77
2022/03/05 07:53:47;;;;;;;26.13;17.70;;;-0.10;99.90;;;;;;5082181;28;20218;-76
2022/03/05 07:56:13;;;;;;;28.40;17.13;;;0.00;99.90;;;;;;5072798;28;20705;-77
2022/03/05 07:58:38;;;;;;;25.33;16.70;;;0.10;99.90;;;;;;5082860;28;20197;-76
2022/03/05 08:01:04;;;;;;;23.90;15.37;;;0.10;99.90;;;;;;5086422;28;20170;-77
2022/03/05 08:03:29;;;;;;;26.33;17.60;;;0.20;99.90;;;;;;5086069;28;20227;-77
2022/03/05 08:05:56;;;;;;;28.77;18.43;;;0.30;99.90;;;;;;5092084;28;20186;-77
2022/03/05 08:08:21;;;;;;;25.73;18.77;;;0.40;99.90;;;;;;5090723;28;20179;-73
2022/03/05 08:10:47;;;;;;;29.00;17.67;;;0.40;99.90;;;;;;5088069;28;20236;-73
2022/03/05 08:13:13;;;;;;;24.30;15.27;;;0.50;99.90;;;;;;5088251;28;20215;-73
2022/03/05 08:15:38;;;;;;;23.80;16.23;;;0.60;99.90;;;;;;5079545;28;20190;-73
2022/03/05 08:18:04;;;;;;;23.40;15.77;;;0.70;99.90;;;;;;5090222;28;20178;-73
2022/03/05 08:20:31;;;;;;;23.77;16.27;;;0.80;99.90;;;;;;5093650;28;20206;-73
2022/03/05 08:22:58;;;;;;;22.33;15.07;;;1.00;99.90;;;;;;5089873;28;20264;-73
2022/03/05 08:25:25;;;;;;;24.77;16.17;;;1.20;99.90;;;;;;5083799;28;20218;-73
2022/03/05 08:27:51;;;;;;;26.60;15.43;;;1.40;99.90;;;;;;5092092;28;20571;-73
2022/03/05 08:30:17;;;;;;;26.07;16.57;;;1.50;99.90;;;;;;5078826;28;20191;-73
2022/03/05 08:32:43;;;;;;;24.63;15.17;;;1.60;99.90;;;;;;5080778;28;20206;-73
2022/03/05 08:35:11;;;;;;;24.40;16.70;;;1.70;99.90;;;;;;5078568;28;20190;-73
2022/03/05 08:37:37;;;;;;;20.50;16.07;;;1.80;99.90;;;;;;5085568;28;20186;-73
2022/03/05 08:40:08;;;;;;;24.43;16.17;;;1.90;99.90;;;;;;5082869;27;20195;-73
2022/03/05 08:42:35;;;;;;;23.83;17.53;;;2.00;99.90;;;;;;5087209;28;20673;-73
2022/03/05 08:45:02;;;;;;;22.60;16.70;;;2.00;99.90;;;;;;5076671;28;20179;-73
2022/03/05 08:47:28;;;;;;;23.17;15.67;;;2.00;99.90;;;;;;5091114;28;20178;-73
2022/03/05 08:49:54;;;;;;;22.67;15.20;;;2.20;99.90;;;;;;5087078;28;20235;-73
2022/03/05 08:52:19;;;;;;;23.37;14.20;;;2.50;99.90;;;;;;5084979;28;20213;-73
2022/03/05 08:54:45;;;;;;;20.23;13.67;;;3.00;99.90;;;;;;5087085;28;20283;-73
2022/03/05 08:57:11;;;;;;;19.67;12.97;;;3.70;99.90;;;;;;5082267;28;20243;-73
2022/03/05 08:59:37;;;;;;;19.53;14.10;;;4.40;99.90;;;;;;5085923;28;20182;-73
2022/03/05 09:02:04;;;;;;;20.03;14.30;;;5.00;99.90;;;;;;5084908;28;20261;-71
2022/03/05 09:04:30;;;;;;;19.97;13.87;;;5.50;99.90;;;;;;5079272;28;20666;-72
2022/03/05 09:06:55;;;;;;;16.20;13.17;;;5.90;99.90;;;;;;5082417;28;20220;-71
2022/03/05 09:09:21;;;;;;;20.07;14.97;;;6.30;99.90;;;;;;5079771;28;20209;-71
2022/03/05 09:11:46;;;;;;;18.53;12.83;;;6.80;99.90;;;;;;5081206;28;20206;-72
2022/03/05 09:14:12;;;;;;;17.83;13.47;;;7.20;99.90;;;;;;5089341;28;20230;-73
2022/03/05 09:16:39;;;;;;;14.03;10.87;;;7.40;99.90;;;;;;5086374;28;20554;-72
2022/03/05 09:19:05;;;;;;;15.83;12.03;;;7.90;99.90;;;;;;5081002;28;20637;-72
2022/03/05 09:21:32;;;;;;;13.90;11.15;;;8.20;99.90;;;;;;5082151;28;20183;-75
2022/03/05 09:23:58;;;;;;;14.88;11.10;;;8.50;99.90;;;;;;5084036;28;20197;-75
2022/03/05 09:26:24;;;;;;;15.90;12.50;;;8.80;99.90;;;;;;5078249;28;20642;-75
2022/03/05 09:28:50;;;;;;;15.45;12.00;;;9.00;98.30;;;;;;5081952;28;20235;-75
2022/03/05 09:31:16;;;;;;;15.93;12.65;;;9.40;96.70;;;;;;5087519;28;20231;-75
2022/03/05 09:33:42;;;;;;;16.92;12.38;;;10.00;94.80;;;;;;5091468;28;20217;-75
2022/03/05 09:36:09;;;;;;;16.65;12.75;;;10.20;92.30;;;;;;5082887;28;20175;-75
2022/03/05 09:38:35;;;;;;;13.90;11.85;;;10.70;90.70;;;;;;5089474;28;20189;-76
2022/03/05 09:41:05;;;;;;;15.68;12.65;;;11.10;87.20;;;;;;5085371;28;20175;-77
2022/03/05 09:43:31;;;;;;;16.83;11.77;;;11.40;84.50;;;;;;5090005;28;20216;-76
2022/03/05 09:45:58;;;;;;;12.30;10.25;;;11.90;77.50;;;;;;5089316;28;20247;-77
2022/03/05 09:48:26;;;;;;;9.63;8.45;;;12.50;72.10;;;;;;5087899;28;20179;-76
2022/03/05 09:50:53;;;;;;;9.00;8.02;;;12.00;63.30;;;;;;5088582;28;20227;-76
2022/03/05 09:53:21;;;;;;;10.55;8.95;;;12.50;63.00;;;;;;5090348;28;20772;-75
2022/03/05 09:55:49;;;;;;;9.02;8.13;;;12.30;61.70;;;;;;5087209;28;20170;-75
2022/03/05 09:58:14;;;;;;;9.40;7.97;;;12.30;61.80;;;;;;5084646;28;20638;-76
2022/03/05 10:00:40;;;;;;;8.85;7.95;;;12.30;60.10;;;;;;5087968;28;20235;-76
2022/03/05 10:03:07;;;;;;;8.93;7.72;;;12.40;59.90;;;;;;5083635;28;20673;-75
2022/03/05 10:05:34;;;;;;;8.98;8.02;;;12.90;59.10;;;;;;5085532;28;20185;-76
2022/03/05 10:08:01;;;;;;;11.48;8.38;;;12.90;58.90;;;;;;5078724;28;20186;-75
2022/03/05 10:10:28;;;;;;;10.40;9.00;;;13.00;58.30;;;;;;5084151;28;20262;-75
2022/03/05 10:12:53;;;;;;;10.32;8.27;;;12.80;58.10;;;;;;5087957;28;20260;-75
2022/03/05 10:15:22;;;;;;;10.05;9.00;;;12.70;57.60;;;;;;5089475;28;20565;-75
2022/03/05 10:17:52;;;;;;;10.60;8.95;;;12.60;57.30;;;;;;5080790;28;20179;-74
2022/03/05 10:20:20;;;;;;;9.77;8.30;;;12.00;57.60;;;;;;5084210;28;20171;-75
2022/03/05 10:22:59;;;;;;;9.00;7.65;;;12.00;58.20;;;;;;5086454;28;20204;-75
2022/03/05 10:25:54;;;;;;;7.15;6.53;;;12.90;56.50;;;;;;5090177;28;20171;-74
2022/03/05 10:28:21;;;;;;;7.20;6.22;;;14.20;52.00;;;;;;5080149;28;20321;-75
2022/03/05 10:30:49;;;;;;;8.07;7.15;;;14.70;49.90;;;;;;5089816;28;20181;-75
2022/03/05 10:33:25;;;;;;;9.50;7.13;;;14.80;49.00;;;;;;5087886;28;20271;-75
2022/03/05 10:35:51;;;;;;;9.27;8.07;;;14.40;48.70;;;;;;5080321;28;20174;-75
2022/03/05 10:38:17;;;;;;;8.38;7.55;;;13.80;50.10;;;;;;5076930;28;20171;-74
2022/03/05 10:40:43;;;;;;;7.85;7.05;;;13.60;50.10;;;;;;5082317;28;20548;-74
2022/03/05 10:43:09;;;;;;;5.72;5.10;;;14.00;49.20;;;;;;5077769;28;20276;-73
2022/03/05 10:45:49;;;;;;;4.13;3.83;;;14.70;46.40;;;;;;5078990;28;20187;-74
2022/03/05 10:48:27;;;;;;;5.70;5.07;;;15.50;42.90;;;;;;5076860;28;20217;-73
2022/03/05 10:51:13;;;;;;;5.82;5.32;;;15.10;41.80;;;;;;5076708;28;20543;-75
2022/03/05 10:53:40;;;;;;;5.78;5.20;;;15.50;44.60;;;;;;5077202;28;20546;-74
2022/03/05 10:56:23;;;;;;;6.55;5.82;;;18.60;42.50;;;;;;5077265;28;20594;-74
2022/03/05 10:58:57;;;;;;;6.80;5.85;;;21.50;37.70;;;;;;5077848;28;20175;-74
2022/03/05 11:01:23;;;;;;;7.50;6.80;;;22.90;35.90;;;;;;5079022;28;20231;-74
2022/03/05 11:03:52;;;;;;;6.97;6.30;;;24.30;35.70;;;;;;5081199;28;20274;-73
2022/03/05 11:06:19;;;;;;;7.18;6.47;;;24.90;32.60;;;;;;5081570;28;20210;-74
2022/03/05 11:08:46;;;;;;;7.13;6.43;;;23.20;32.00;;;;;;5080978;28;20191;-74
2022/03/05 11:11:15;;;;;;;7.53;6.78;;;21.30;33.80;;;;;;5086884;28;20240;-75
2022/03/05 11:13:42;;;;;;;7.10;6.45;;;19.30;35.00;;;;;;5091552;28;20206;-74
2022/03/05 11:16:09;;;;;;;6.85;6.15;;;17.60;36.50;;;;;;5085096;28;20187;-75
2022/03/05 11:18:36;;;;;;;7.72;7.03;;;16.10;37.80;;;;;;5087101;28;20176;-75
2022/03/05 11:21:02;;;;;;;8.85;7.95;;;14.90;39.50;;;;;;5082408;28;20266;-75
2022/03/05 11:23:28;;;;;;;10.25;8.43;;;14.20;41.90;;;;;;5089856;28;20217;-76
2022/03/05 11:25:55;;;;;;;11.15;9.95;;;13.70;42.50;;;;;;5086888;28;20182;-75
2022/03/05 11:28:22;;;;;;;12.68;10.32;;;12.80;44.90;;;;;;5077034;28;20178;-74
2022/03/05 11:30:55;;;;;;;10.18;8.95;;;12.20;46.70;;;;;;5083888;28;20170;-75
2022/03/05 11:33:23;;;;;;;12.20;10.85;;;11.60;48.80;;;;;;5077878;28;20214;-74
2022/03/05 11:35:49;;;;;;;12.15;9.57;;;10.80;50.40;;;;;;5086904;28;20198;-75
2022/03/05 11:38:38;;;;;;;10.77;8.90;;;10.30;51.70;;;;;;5087673;28;20718;-75
2022/03/05 11:41:24;;;;;;;11.43;9.85;;;9.80;53.70;;;;;;5091901;28;20178;-75
2022/03/05 11:43:50;;;;;;;11.25;9.90;;;9.70;54.30;;;;;;5089568;28;20189;-75
2022/03/05 11:46:24;;;;;;;15.23;10.38;;;10.00;54.10;;;;;;5088801;28;20532;-76
2022/03/05 11:49:04;;;;;;;12.80;10.48;;;10.10;54.80;;;;;;5081907;28;20198;-75
2022/03/05 11:51:31;;;;;;;11.95;9.20;;;10.30;54.70;;;;;;5080955;28;20232;-75
2022/03/05 11:54:13;;;;;;;10.68;9.57;;;10.50;54.30;;;;;;5088134;28;20202;-74
2022/03/05 11:56:59;;;;;;;11.18;9.23;;;10.60;53.50;;;;;;5088304;28;20187;-76
2022/03/05 11:59:29;;;;;;;8.65;7.75;;;10.70;53.00;;;;;;5087657;28;20175;-76
2022/03/05 12:01:55;;;;;;;10.80;8.93;;;10.50;52.10;;;;;;5091070;28;20222;-73
2022/03/05 12:04:27;;;;;;;10.55;8.60;;;10.50;52.20;;;;;;5092800;28;20182;-75
2022/03/05 12:06:57;;;;;;;8.38;7.13;;;10.40;52.70;;;;;;5086180;28;20190;-75
2022/03/05 12:09:36;;;;;;;9.50;8.15;;;10.30;52.90;;;;;;5090355;28;20859;-74
2022/03/05 12:12:10;;;;;;;8.63;7.72;;;10.00;53.10;;;;;;5088789;28;20198;-76
2022/03/05 12:14:55;;;;;;;8.77;7.85;;;9.90;54.10;;;;;;5092240;28;20213;-75
2022/03/05 12:17:23;;;;;;;10.07;8.70;;;9.90;53.90;;;;;;5090265;28;20171;-75
2022/03/05 12:19:48;;;;;;;9.30;8.40;;;9.80;54.70;;;;;;5094070;28;20199;-75
2022/03/05 12:22:15;;;;;;;9.85;8.23;;;9.80;54.70;;;;;;5089412;28;20198;-75
2022/03/05 12:24:41;;;;;;;9.85;8.43;;;10.00;53.80;;;;;;5084772;28;20186;-75
2022/03/05 12:27:14;;;;;;;9.45;7.95;;;9.80;54.40;;;;;;5075661;28;20187;-75
2022/03/05 12:29:47;;;;;;;9.27;8.27;;;10.10;53.80;;;;;;5084908;28;20684;-75
2022/03/05 12:32:16;;;;;;;9.10;8.13;;;10.50;52.40;;;;;;5087771;28;20207;-75